Auburn, Maine
Current Conditions -  °F | °C
As of 7:35 AM on Saturday 25 Oct 2014 (Local Time) from KLEW Reporting Station
Overcast Overcast  
Wind Chill: 43°   Ceiling: 10000
Heat Index: 43°   Visibility: 10mi
Dew Point: 36°   Wind: 0mph
Humidity: 76%   Direction: NA
Pressure: 29.7"   Gusts: NA
Location:  44.1°N, 70.23°W
Report Text: KLEW 251135Z AUTO 00000KT 10SM OVC100 06/02 A2970 RMK AO1
Loading
Personal Weather Stations






























Interactive Weather Map New forecast layout! Learn more

10-Day Weather Forecast

Advertisements
Track Severe Weather on mobile